Time;durP1;ratioP1;P1;durP2;ratioP2;P2;SDS_P1;SDS_P2;PMS_P1;PMS_P2;Temp;Humidity;BMP_temperature;BMP_pressure;BME280_temperature;BME280_humidity;BME280_pressure;Samples;Min_cycle;Max_cycle;Signal;HPM_P1;HPM_P2
2022/12/22 03:25:54;;;;;;;9.60;7.25;;;;;;;;;;5007210;28;20056;-63
2022/12/22 03:28:27;;;;;;;12.45;7.68;;;;;;;;;;4999828;28;20049;-64
2022/12/22 03:31:04;;;;;;;9.77;7.55;;;;;;;;;;4990528;28;20053;-66
2022/12/22 03:33:31;;;;;;;11.85;7.00;;;;;;;;;;4996726;28;20825;-64
2022/12/22 03:35:59;;;;;;;10.02;6.95;;;;;;;;;;5007142;28;20061;-65
2022/12/22 03:38:25;;;;;;;10.50;7.50;;;;;;;;;;4999860;28;20123;-65
2022/12/22 03:40:54;;;;;;;10.10;7.05;;;;;;;;;;4999148;28;20081;-65
2022/12/22 03:51:39;;;;;;;9.20;6.43;;;;;;;;;;4999492;28;20053;-65
2022/12/22 03:54:06;;;;;;;8.63;6.80;;;;;;;;;;5008298;28;20042;-65
2022/12/22 03:56:34;;;;;;;9.45;5.93;;;;;;;;;;4999699;28;20442;-64
2022/12/22 03:59:02;;;;;;;10.80;6.50;;;;;;;;;;5014009;28;20049;-64
2022/12/22 04:01:36;;;;;;;9.07;6.65;;;;;;;;;;5006085;28;20045;-65
2022/12/22 04:04:12;;;;;;;9.23;6.72;;;;;;;;;;5019138;28;20744;-65
2022/12/22 04:06:43;;;;;;;10.57;6.10;;;;;;;;;;5018735;28;20052;-65
2022/12/22 04:09:12;;;;;;;8.85;6.45;;;;;;;;;;5007652;28;20053;-65
2022/12/22 04:14:24;;;;;;;9.52;7.32;;;;;;;;;;4993309;28;20557;-64
2022/12/22 04:16:52;;;;;;;9.02;7.07;;;;;;;;;;4996517;28;20050;-64
2022/12/22 04:19:21;;;;;;;9.38;7.05;;;;;;;;;;4994874;28;20124;-65
2022/12/22 04:21:47;;;;;;;11.27;7.47;;;;;;;;;;5006915;28;20053;-65
2022/12/22 04:24:13;;;;;;;9.55;7.45;;;;;;;;;;5007761;28;20047;-65
2022/12/22 04:26:39;;;;;;;10.27;6.28;;;;;;;;;;4991792;28;20077;-64
2022/12/22 04:29:09;;;;;;;7.32;6.20;;;;;;;;;;4965335;28;20053;-65
2022/12/22 04:31:36;;;;;;;8.65;6.60;;;;;;;;;;4967381;28;20911;-66
2022/12/22 04:34:02;;;;;;;8.20;5.95;;;;;;;;;;4998024;28;20043;-66
2022/12/22 04:36:34;;;;;;;8.52;6.57;;;;;;;;;;4999668;28;20157;-66
2022/12/22 04:39:05;;;;;;;6.57;5.63;;;;;;;;;;4992277;28;20209;-66
2022/12/22 04:41:35;;;;;;;8.07;6.13;;;;;;;;;;5008338;28;20054;-66
2022/12/22 04:44:01;;;;;;;8.38;6.40;;;;;;;;;;4995620;28;20050;-66
2022/12/22 04:46:32;;;;;;;5.22;4.40;;;;;;;;;;5005512;28;20096;-65
2022/12/22 04:49:01;;;;;;;8.23;5.93;;;;;;;;;;5014127;28;20046;-65
2022/12/22 04:51:32;;;;;;;7.40;5.57;;;;;;;;;;5001051;28;20950;-66
2022/12/22 04:54:04;;;;;;;9.02;5.60;;;;;;;;;;5000670;28;20046;-65
2022/12/22 04:56:29;;;;;;;8.07;6.10;;;;;;;;;;5003770;28;20092;-66
2022/12/22 04:58:55;;;;;;;10.45;5.95;;;;;;;;;;5003312;28;20053;-65
2022/12/22 05:01:20;;;;;;;11.30;5.78;;;;;;;;;;5002448;28;20053;-67
2022/12/22 05:03:46;;;;;;;7.63;5.80;;;;;;;;;;5000792;28;20846;-67
2022/12/22 05:06:12;;;;;;;8.48;6.22;;;;;;;;;;5002927;28;20442;-68
2022/12/22 05:08:38;;;;;;;7.50;4.38;;;;;;;;;;5010835;28;20045;-67
2022/12/22 05:11:03;;;;;;;7.07;5.85;;;;;;;;;;5001372;28;20109;-68
2022/12/22 05:13:30;;;;;;;11.63;6.07;;;;;;;;;;4997874;28;20141;-68
2022/12/22 05:16:03;;;;;;;5.75;4.70;;;;;;;;;;5000006;28;20136;-68
2022/12/22 05:18:28;;;;;;;4.65;4.15;;;;;;;;;;5001914;28;20140;-67
2022/12/22 05:20:53;;;;;;;7.10;5.05;;;;;;;;;;5001138;28;20093;-67
2022/12/22 05:23:19;;;;;;;9.80;4.25;;;;;;;;;;5000299;28;20523;-68
2022/12/22 05:25:44;;;;;;;5.82;4.18;;;;;;;;;;5001820;28;20152;-67
2022/12/22 05:28:09;;;;;;;6.50;3.92;;;;;;;;;;4999576;28;20050;-67
2022/12/22 05:30:35;;;;;;;6.03;4.82;;;;;;;;;;5000884;28;20057;-67
2022/12/22 05:33:00;;;;;;;5.75;4.80;;;;;;;;;;5002506;28;20045;-68
2022/12/22 05:35:26;;;;;;;4.88;4.22;;;;;;;;;;4999696;28;20050;-67
2022/12/22 05:37:51;;;;;;;6.05;4.72;;;;;;;;;;5001355;28;20077;-67
2022/12/22 05:40:17;;;;;;;5.30;4.35;;;;;;;;;;5002455;28;20230;-67
2022/12/22 05:42:42;;;;;;;7.45;4.88;;;;;;;;;;5002760;28;20600;-66
2022/12/22 05:45:11;;;;;;;6.18;4.57;;;;;;;;;;5001335;28;20041;-66
2022/12/22 05:47:36;;;;;;;5.95;5.00;;;;;;;;;;5002326;28;20049;-67
2022/12/22 05:50:03;;;;;;;11.75;5.95;;;;;;;;;;4989361;28;20448;-67
2022/12/22 05:52:28;;;;;;;7.95;6.13;;;;;;;;;;4997885;28;20478;-68
2022/12/22 05:54:54;;;;;;;17.38;6.10;;;;;;;;;;4999005;28;20050;-70
2022/12/22 05:57:19;;;;;;;7.65;5.65;;;;;;;;;;4999596;28;20053;-68
2022/12/22 05:59:45;;;;;;;11.13;6.75;;;;;;;;;;5015207;28;20046;-68
2022/12/22 06:02:10;;;;;;;10.15;5.85;;;;;;;;;;5015293;28;20041;-66
2022/12/22 06:04:36;;;;;;;11.15;6.60;;;;;;;;;;4999793;28;20784;-68
2022/12/22 06:07:01;;;;;;;8.68;6.60;;;;;;;;;;5000393;28;20104;-68
2022/12/22 06:09:26;;;;;;;10.25;7.05;;;;;;;;;;5000442;28;20049;-68
2022/12/22 06:11:52;;;;;;;12.00;7.75;;;;;;;;;;5000207;28;20501;-67
2022/12/22 06:14:17;;;;;;;11.45;6.97;;;;;;;;;;4999221;28;20053;-68
2022/12/22 06:16:43;;;;;;;10.07;6.88;;;;;;;;;;5014216;28;20038;-67
2022/12/22 06:19:08;;;;;;;12.35;6.57;;;;;;;;;;5013697;28;20796;-67
2022/12/22 06:21:34;;;;;;;10.02;7.25;;;;;;;;;;4998809;28;20707;-66
2022/12/22 06:23:59;;;;;;;11.02;6.85;;;;;;;;;;4999554;28;20049;-68
2022/12/22 06:26:25;;;;;;;10.77;7.18;;;;;;;;;;4999151;28;20061;-67
2022/12/22 06:28:50;;;;;;;10.73;7.88;;;;;;;;;;4999259;28;20050;-66
2022/12/22 06:31:15;;;;;;;9.70;7.47;;;;;;;;;;4997770;28;20117;-67
2022/12/22 06:33:41;;;;;;;12.13;8.13;;;;;;;;;;5001318;28;20498;-67
2022/12/22 06:36:07;;;;;;;11.80;7.38;;;;;;;;;;5000575;28;20054;-67
2022/12/22 06:38:33;;;;;;;10.57;7.97;;;;;;;;;;5001186;28;20061;-66
2022/12/22 06:40:58;;;;;;;10.18;7.32;;;;;;;;;;4999640;28;20132;-66
2022/12/22 06:43:24;;;;;;;16.80;8.95;;;;;;;;;;5000049;28;20066;-65
2022/12/22 06:45:50;;;;;;;11.50;7.38;;;;;;;;;;4998767;28;20050;-66
2022/12/22 06:48:16;;;;;;;29.35;7.90;;;;;;;;;;5000674;28;20042;-66
2022/12/22 06:50:41;;;;;;;11.27;7.60;;;;;;;;;;5000904;28;20053;-66
2022/12/22 06:53:08;;;;;;;12.88;7.38;;;;;;;;;;4996787;28;20050;-67
2022/12/22 06:55:34;;;;;;;12.10;7.90;;;;;;;;;;4998873;28;20061;-67
2022/12/22 06:57:59;;;;;;;9.63;7.20;;;;;;;;;;4998077;28;20053;-68
2022/12/22 07:00:25;;;;;;;10.13;7.47;;;;;;;;;;4999876;28;20047;-67
2022/12/22 07:02:50;;;;;;;10.00;6.70;;;;;;;;;;4996387;28;21580;-67
2022/12/22 07:05:16;;;;;;;9.90;5.82;;;;;;;;;;4999238;28;20045;-67
2022/12/22 07:07:41;;;;;;;6.70;5.65;;;;;;;;;;4998903;28;20052;-67
2022/12/22 07:10:07;;;;;;;7.63;5.43;;;;;;;;;;5001088;28;20055;-67
2022/12/22 07:12:33;;;;;;;6.90;5.20;;;;;;;;;;5000333;28;20041;-67
2022/12/22 07:14:58;;;;;;;7.70;5.68;;;;;;;;;;4999735;28;20060;-66
2022/12/22 07:17:24;;;;;;;7.35;5.40;;;;;;;;;;4999465;28;20069;-66
2022/12/22 07:19:49;;;;;;;7.10;5.35;;;;;;;;;;5001550;28;20127;-66
2022/12/22 07:22:15;;;;;;;6.97;5.03;;;;;;;;;;5000809;28;20069;-67
2022/12/22 07:24:40;;;;;;;10.20;4.95;;;;;;;;;;4998704;28;20042;-66
2022/12/22 07:27:05;;;;;;;5.75;3.97;;;;;;;;;;5014645;28;20968;-66
2022/12/22 07:29:31;;;;;;;6.10;4.30;;;;;;;;;;5000328;28;20495;-68
2022/12/22 07:31:56;;;;;;;7.35;4.47;;;;;;;;;;5001376;28;20080;-67
2022/12/22 07:34:22;;;;;;;8.32;5.13;;;;;;;;;;5000555;28;20690;-69
2022/12/22 07:36:47;;;;;;;8.18;4.53;;;;;;;;;;4997697;28;20049;-68
2022/12/22 07:39:12;;;;;;;6.57;4.50;;;;;;;;;;5015499;28;20867;-69
2022/12/22 07:44:23;;;;;;;9.77;6.00;;;;;;;;;;4999656;28;20156;-67
2022/12/22 07:46:48;;;;;;;8.63;6.32;;;;;;;;;;4997295;28;20046;-68
2022/12/22 07:51:58;;;;;;;12.57;6.88;;;;;;;;;;5000144;28;20152;-68
2022/12/22 07:54:25;;;;;;;9.98;5.80;;;;;;;;;;4998864;28;20856;-68
2022/12/22 07:56:50;;;;;;;7.25;4.75;;;;;;;;;;4998686;28;23361;-68
2022/12/22 07:59:16;;;;;;;4.60;3.40;;;;;;;;;;4998429;28;20119;-68
2022/12/22 08:01:41;;;;;;;4.32;3.10;;;;;;;;;;5000020;28;20053;-69
2022/12/22 08:04:08;;;;;;;5.07;3.47;;;;;;;;;;4999569;28;20054;-69
2022/12/22 08:06:34;;;;;;;2.97;2.38;;;;;;;;;;4998826;28;20050;-67
2022/12/22 08:09:00;;;;;;;2.85;2.10;;;;;;;;;;4997512;28;20468;-68
2022/12/22 08:11:25;;;;;;;9.93;2.92;;;;;;;;;;4999621;28;20092;-68
2022/12/22 08:13:51;;;;;;;3.53;2.22;;;;;;;;;;4999830;28;20080;-69
2022/12/22 08:16:16;;;;;;;1.95;1.70;;;;;;;;;;4998863;28;20056;-69
2022/12/22 08:18:43;;;;;;;2.50;2.03;;;;;;;;;;4999764;28;20107;-69
2022/12/22 08:21:09;;;;;;;2.88;1.90;;;;;;;;;;4997279;28;20054;-69
2022/12/22 08:23:35;;;;;;;2.38;1.63;;;;;;;;;;5000378;28;20116;-68
2022/12/22 08:26:08;;;;;;;1.75;1.40;;;;;;;;;;4998809;28;20053;-69
2022/12/22 08:28:38;;;;;;;1.85;1.40;;;;;;;;;;4999343;28;20053;-67
2022/12/22 08:31:04;;;;;;;1.70;1.45;;;;;;;;;;4997669;28;20103;-68
2022/12/22 08:33:29;;;;;;;2.40;2.10;;;;;;;;;;4999785;28;20057;-68
2022/12/22 08:35:56;;;;;;;2.58;1.95;;;;;;;;;;5014228;28;20042;-68
2022/12/22 08:38:22;;;;;;;6.03;2.25;;;;;;;;;;4999467;28;20053;-68
2022/12/22 08:40:48;;;;;;;2.63;2.15;;;;;;;;;;4998132;28;20052;-69
2022/12/22 08:43:15;;;;;;;4.85;2.20;;;;;;;;;;4998434;28;20120;-69
2022/12/22 08:45:41;;;;;;;7.97;1.92;;;;;;;;;;5014312;28;20049;-68
2022/12/22 08:48:09;;;;;;;5.30;2.40;;;;;;;;;;4998068;28;20149;-68
2022/12/22 08:50:34;;;;;;;3.30;1.92;;;;;;;;;;4998622;28;20053;-68
2022/12/22 08:53:04;;;;;;;2.30;1.73;;;;;;;;;;4996708;28;20046;-68
2022/12/22 08:55:30;;;;;;;4.15;1.80;;;;;;;;;;4999155;28;20089;-68
2022/12/22 08:57:56;;;;;;;2.42;1.63;;;;;;;;;;4998620;28;20077;-70
2022/12/22 09:00:21;;;;;;;4.32;1.35;;;;;;;;;;4999014;28;20056;-67
2022/12/22 09:02:47;;;;;;;1.70;0.82;;;;;;;;;;4997897;28;20073;-68
2022/12/22 09:05:12;;;;;;;3.05;0.85;;;;;;;;;;4996508;28;20108;-68
2022/12/22 09:07:38;;;;;;;1.48;0.80;;;;;;;;;;4998510;28;20426;-68
2022/12/22 09:10:03;;;;;;;2.03;0.40;;;;;;;;;;4970782;28;20132;-68
2022/12/22 09:12:29;;;;;;;4.22;0.75;;;;;;;;;;4992511;28;20050;-68
2022/12/22 09:14:54;;;;;;;1.83;0.77;;;;;;;;;;4961581;28;20082;-68
2022/12/22 09:17:20;;;;;;;0.82;0.60;;;;;;;;;;4978591;28;20050;-68
2022/12/22 09:19:45;;;;;;;1.13;0.80;;;;;;;;;;4980349;28;20057;-68
2022/12/22 09:22:11;;;;;;;2.65;0.80;;;;;;;;;;4979151;28;20050;-68
2022/12/22 09:24:36;;;;;;;2.65;0.70;;;;;;;;;;4979108;28;20864;-68
2022/12/22 09:27:03;;;;;;;1.65;0.82;;;;;;;;;;4977815;28;20061;-68
2022/12/22 09:29:28;;;;;;;1.38;0.50;;;;;;;;;;4980265;28;20054;-68
2022/12/22 09:31:54;;;;;;;2.53;0.85;;;;;;;;;;4979358;28;20058;-68
2022/12/22 09:34:19;;;;;;;1.77;1.00;;;;;;;;;;4981128;28;20066;-67
2022/12/22 09:36:45;;;;;;;3.05;1.10;;;;;;;;;;4981332;28;20054;-67
2022/12/22 09:39:11;;;;;;;4.25;1.60;;;;;;;;;;4983468;28;20416;-67
2022/12/22 09:41:51;;;;;;;2.78;0.98;;;;;;;;;;4998544;28;20062;-67
2022/12/22 09:44:51;;;;;;;3.88;0.98;;;;;;;;;;4982332;28;20038;-70
2022/12/22 09:47:23;;;;;;;2.78;0.80;;;;;;;;;;4940111;28;20544;-68
2022/12/22 09:49:50;;;;;;;3.10;0.90;;;;;;;;;;4975854;28;20054;-67
2022/12/22 09:52:34;;;;;;;3.70;0.70;;;;;;;;;;4983095;28;20046;-68
2022/12/22 09:55:01;;;;;;;1.35;0.70;;;;;;;;;;4981612;28;20124;-68
2022/12/22 09:57:31;;;;;;;3.65;0.90;;;;;;;;;;4997689;28;20046;-67
2022/12/22 10:00:11;;;;;;;2.65;0.70;;;;;;;;;;4982184;28;20078;-68
2022/12/22 10:03:07;;;;;;;3.30;1.20;;;;;;;;;;4982803;28;20043;-68
2022/12/22 10:06:01;;;;;;;2.33;1.23;;;;;;;;;;4981592;28;20072;-68
2022/12/22 10:08:31;;;;;;;4.30;1.50;;;;;;;;;;4980189;28;20050;-68
2022/12/22 10:10:56;;;;;;;4.57;1.52;;;;;;;;;;4980860;28;20050;-67
2022/12/22 10:13:22;;;;;;;3.50;1.33;;;;;;;;;;4982876;28;20611;-67
2022/12/22 10:15:48;;;;;;;3.50;1.30;;;;;;;;;;4981363;28;20141;-70
2022/12/22 10:18:16;;;;;;;3.53;1.70;;;;;;;;;;4982220;28;20046;-67
2022/12/22 10:20:46;;;;;;;2.28;1.25;;;;;;;;;;4981209;28;20086;-69
2022/12/22 10:23:26;;;;;;;2.97;1.23;;;;;;;;;;4997713;28;20042;-68
2022/12/22 10:25:55;;;;;;;2.42;1.40;;;;;;;;;;4996487;28;20052;-68
2022/12/22 10:28:27;;;;;;;2.22;1.60;;;;;;;;;;4981975;28;20050;-68
2022/12/22 10:31:11;;;;;;;3.08;1.92;;;;;;;;;;4980270;28;20054;-68
2022/12/22 10:33:38;;;;;;;2.75;1.80;;;;;;;;;;4982362;28;21053;-68
2022/12/22 10:36:04;;;;;;;6.03;2.72;;;;;;;;;;4980703;28;20129;-68
2022/12/22 10:38:32;;;;;;;8.73;3.92;;;;;;;;;;4982135;28;20511;-68
2022/12/22 10:41:03;;;;;;;7.80;3.10;;;;;;;;;;4981612;28;20058;-68
2022/12/22 10:43:33;;;;;;;4.70;2.90;;;;;;;;;;4980781;28;20058;-68
2022/12/22 10:46:00;;;;;;;7.97;2.85;;;;;;;;;;4980465;28;20104;-69
2022/12/22 10:48:37;;;;;;;4.30;2.60;;;;;;;;;;4981943;28;20153;-69
2022/12/22 10:51:09;;;;;;;4.88;2.90;;;;;;;;;;4982222;28;20042;-67
2022/12/22 10:53:43;;;;;;;5.45;2.28;;;;;;;;;;4980802;28;20669;-68
2022/12/22 10:56:19;;;;;;;3.50;1.65;;;;;;;;;;4980843;28;20050;-68
2022/12/22 10:58:52;;;;;;;4.03;2.05;;;;;;;;;;4981504;28;20048;-67
2022/12/22 11:01:29;;;;;;;5.13;1.80;;;;;;;;;;4981409;28;20050;-67
2022/12/22 11:03:55;;;;;;;2.22;1.52;;;;;;;;;;4980705;28;20611;-68
2022/12/22 11:06:21;;;;;;;3.42;1.83;;;;;;;;;;4979499;28;20880;-67
2022/12/22 11:08:47;;;;;;;2.83;1.65;;;;;;;;;;4995653;28;20038;-68
2022/12/22 11:11:26;;;;;;;4.38;1.70;;;;;;;;;;4996754;28;20050;-67
2022/12/22 11:14:11;;;;;;;2.92;1.75;;;;;;;;;;4981835;28;20100;-67
2022/12/22 11:16:53;;;;;;;4.25;1.60;;;;;;;;;;4995308;28;20047;-67
2022/12/22 11:19:57;;;;;;;4.80;1.23;;;;;;;;;;4981608;28;20212;-69
2022/12/22 11:22:46;;;;;;;3.40;1.35;;;;;;;;;;4980029;28;20086;-66
2022/12/22 11:25:23;;;;;;;3.15;1.70;;;;;;;;;;4992081;28;20541;-69
2022/12/22 11:28:22;;;;;;;2.20;1.50;;;;;;;;;;4980608;28;20098;-68
2022/12/22 11:31:21;;;;;;;3.00;1.60;;;;;;;;;;4980482;28;20081;-69
2022/12/22 11:34:08;;;;;;;5.25;1.50;;;;;;;;;;4981156;28;20141;-67
2022/12/22 11:37:27;;;;;;;1.73;0.63;;;;;;;;;;4977784;28;20589;-68
2022/12/22 11:40:05;;;;;;;3.15;0.98;;;;;;;;;;4962399;28;20066;-67
2022/12/22 11:42:51;;;;;;;6.30;0.60;;;;;;;;;;4976846;28;20177;-68
2022/12/22 11:45:32;;;;;;;1.92;0.90;;;;;;;;;;4972795;28;20488;-68
2022/12/22 11:48:19;;;;;;;3.55;0.90;;;;;;;;;;4958779;28;20045;-68
2022/12/22 11:50:48;;;;;;;7.95;0.77;;;;;;;;;;4977824;28;20133;-67
2022/12/22 11:53:47;;;;;;;3.75;1.10;;;;;;;;;;4979815;28;20046;-66
2022/12/22 11:56:28;;;;;;;1.98;0.88;;;;;;;;;;4979588;28;20514;-65
2022/12/22 11:59:24;;;;;;;2.63;0.82;;;;;;;;;;4978750;28;20054;-70
2022/12/22 12:01:55;;;;;;;3.67;0.60;;;;;;;;;;4995370;28;20108;-67
2022/12/22 12:04:59;;;;;;;1.92;0.80;;;;;;;;;;4980278;28;20065;-68
2022/12/22 12:07:34;;;;;;;2.00;1.00;;;;;;;;;;4966111;28;20050;-68
2022/12/22 12:10:14;;;;;;;4.47;1.02;;;;;;;;;;4979035;28;20046;-71
2022/12/22 12:12:48;;;;;;;3.50;1.02;;;;;;;;;;4980078;28;20058;-68
2022/12/22 12:15:24;;;;;;;2.00;0.63;;;;;;;;;;4979985;28;20046;-67
2022/12/22 12:18:27;;;;;;;3.25;0.80;;;;;;;;;;4980057;28;20058;-67
2022/12/22 12:20:57;;;;;;;;;;;;;;;;;;4978400;28;20069;-67
2022/12/22 12:24:00;;;;;;;2.05;0.88;;;;;;;;;;4980478;28;19922;-67
2022/12/22 12:26:40;;;;;;;1.98;0.65;;;;;;;;;;4979441;28;20132;-68
2022/12/22 12:29:20;;;;;;;2.40;0.68;;;;;;;;;;4991579;28;20124;-68
2022/12/22 12:32:04;;;;;;;1.67;0.70;;;;;;;;;;4977677;28;20042;-68
2022/12/22 12:34:41;;;;;;;1.60;0.63;;;;;;;;;;4977946;28;20049;-68
2022/12/22 12:37:36;;;;;;;4.68;0.90;;;;;;;;;;4994761;28;21097;-68
2022/12/22 12:40:20;;;;;;;6.45;1.75;;;;;;;;;;4993461;28;20050;-70
2022/12/22 12:42:46;;;;;;;3.85;1.10;;;;;;;;;;4976982;28;20061;-67
2022/12/22 12:45:41;;;;;;;3.50;0.80;;;;;;;;;;4991923;28;20043;-67
2022/12/22 12:48:37;;;;;;;3.58;0.95;;;;;;;;;;4975782;28;20042;-68
2022/12/22 12:51:41;;;;;;;4.20;1.80;;;;;;;;;;4965253;28;20117;-68
2022/12/22 12:54:28;;;;;;;5.93;1.30;;;;;;;;;;4975312;28;20053;-68
2022/12/22 12:57:09;;;;;;;2.05;0.70;;;;;;;;;;4976506;28;21044;-68
2022/12/22 12:59:38;;;;;;;2.60;0.82;;;;;;;;;;4977349;28;20050;-68
2022/12/22 13:02:26;;;;;;;5.55;1.50;;;;;;;;;;4977011;28;20141;-67
2022/12/22 13:05:22;;;;;;;2.85;1.10;;;;;;;;;;4975634;28;20105;-67
2022/12/22 13:08:16;;;;;;;9.30;1.30;;;;;;;;;;4976255;28;20066;-70
2022/12/22 13:11:07;;;;;;;6.60;1.08;;;;;;;;;;4981208;28;20124;-67
2022/12/22 13:13:38;;;;;;;5.68;1.17;;;;;;;;;;4996121;28;20046;-67
2022/12/22 13:16:03;;;;;;;1.98;0.50;;;;;;;;;;4978835;28;20057;-67
2022/12/22 13:18:32;;;;;;;3.60;1.02;;;;;;;;;;4996123;28;20047;-67
2022/12/22 13:21:05;;;;;;;2.20;0.73;;;;;;;;;;4980727;28;20058;-67
2022/12/22 13:23:35;;;;;;;5.32;1.10;;;;;;;;;;4995792;28;20689;-67
2022/12/22 13:26:08;;;;;;;3.88;0.80;;;;;;;;;;4980645;28;20560;-67
2022/12/22 13:28:38;;;;;;;1.80;0.70;;;;;;;;;;4979987;28;20038;-72
2022/12/22 13:31:11;;;;;;;5.68;1.85;;;;;;;;;;4975631;28;20147;-66
2022/12/22 13:33:38;;;;;;;1.90;0.80;;;;;;;;;;4980063;28;20045;-67
2022/12/22 13:36:07;;;;;;;5.07;0.70;;;;;;;;;;4977822;28;20054;-67
2022/12/22 13:38:35;;;;;;;1.48;0.80;;;;;;;;;;4980697;28;20050;-67
2022/12/22 13:41:15;;;;;;;1.92;0.80;;;;;;;;;;4981923;28;20069;-67
2022/12/22 13:43:43;;;;;;;2.17;0.60;;;;;;;;;;4983232;28;20054;-66
2022/12/22 13:46:09;;;;;;;7.95;1.05;;;;;;;;;;4980317;28;20049;-67
2022/12/22 13:48:38;;;;;;;6.80;1.20;;;;;;;;;;4980614;28;20070;-68
2022/12/22 13:51:08;;;;;;;1.25;0.90;;;;;;;;;;4982408;28;20053;-67
2022/12/22 13:53:39;;;;;;;4.05;1.42;;;;;;;;;;4983127;28;20128;-67
2022/12/22 13:56:14;;;;;;;7.40;1.00;;;;;;;;;;4980106;28;20495;-67
2022/12/22 13:58:43;;;;;;;6.82;1.17;;;;;;;;;;4981225;28;20042;-67
2022/12/22 14:01:09;;;;;;;3.90;1.30;;;;;;;;;;4980692;28;20061;-67
2022/12/22 14:03:44;;;;;;;5.88;1.23;;;;;;;;;;4983115;28;20046;-67
2022/12/22 14:06:28;;;;;;;4.78;1.65;;;;;;;;;;4980377;28;20050;-67
2022/12/22 14:09:08;;;;;;;4.82;1.23;;;;;;;;;;4981674;28;20132;-67
2022/12/22 14:11:34;;;;;;;5.65;1.25;;;;;;;;;;4995368;28;20057;-67
2022/12/22 14:13:59;;;;;;;4.57;1.23;;;;;;;;;;4981531;28;20042;-67
2022/12/22 14:16:25;;;;;;;3.28;0.73;;;;;;;;;;4980109;28;20085;-68
2022/12/22 14:18:51;;;;;;;1.25;0.95;;;;;;;;;;4975469;28;20065;-67
2022/12/22 14:21:17;;;;;;;1.83;0.85;;;;;;;;;;4979936;28;20050;-68
2022/12/22 14:23:44;;;;;;;5.57;1.25;;;;;;;;;;4982453;28;20115;-67
2022/12/22 14:26:23;;;;;;;4.18;1.10;;;;;;;;;;4980067;28;20077;-68
2022/12/22 14:28:52;;;;;;;4.28;1.25;;;;;;;;;;4981339;28;20056;-68
2022/12/22 14:31:19;;;;;;;7.20;1.17;;;;;;;;;;4981145;28;20306;-67
2022/12/22 14:33:56;;;;;;;9.63;1.90;;;;;;;;;;4981544;28;20064;-67
2022/12/22 14:36:26;;;;;;;6.18;1.58;;;;;;;;;;4979207;28;20832;-67
2022/12/22 14:38:56;;;;;;;4.55;1.15;;;;;;;;;;4993806;28;20050;-67
2022/12/22 14:41:41;;;;;;;6.82;1.42;;;;;;;;;;4980207;28;20058;-68
2022/12/22 14:44:27;;;;;;;6.07;1.88;;;;;;;;;;4979048;28;20046;-69
2022/12/22 14:47:05;;;;;;;3.15;1.35;;;;;;;;;;4980174;28;20125;-68
2022/12/22 14:49:31;;;;;;;6.45;1.88;;;;;;;;;;4981836;28;20145;-68
2022/12/22 14:52:05;;;;;;;8.55;1.75;;;;;;;;;;4981723;28;20500;-68
2022/12/22 14:54:31;;;;;;;5.45;1.38;;;;;;;;;;4979856;28;20113;-68
2022/12/22 14:57:03;;;;;;;7.30;2.10;;;;;;;;;;4980032;28;20043;-69
2022/12/22 14:59:30;;;;;;;6.53;1.90;;;;;;;;;;4981383;28;20116;-68
2022/12/22 15:02:27;;;;;;;4.10;1.08;;;;;;;;;;4996495;28;20060;-68
2022/12/22 15:05:14;;;;;;;10.38;1.90;;;;;;;;;;4979643;28;20571;-68
2022/12/22 15:07:49;;;;;;;9.50;1.50;;;;;;;;;;4975016;28;20124;-68
2022/12/22 15:10:15;;;;;;;3.92;1.52;;;;;;;;;;4979865;28;20141;-68
2022/12/22 15:12:41;;;;;;;9.20;2.00;;;;;;;;;;4980724;28;21257;-68
2022/12/22 15:15:20;;;;;;;11.52;2.10;;;;;;;;;;4980207;28;20106;-68
2022/12/22 15:17:49;;;;;;;6.93;1.83;;;;;;;;;;4978900;28;20571;-69
2022/12/22 15:20:18;;;;;;;4.65;1.35;;;;;;;;;;4976888;28;20133;-69
2022/12/22 15:22:43;;;;;;;9.45;2.10;;;;;;;;;;4979640;28;20094;-68
2022/12/22 15:25:18;;;;;;;6.90;1.77;;;;;;;;;;4980194;28;20669;-69
2022/12/22 15:27:44;;;;;;;2.40;0.82;;;;;;;;;;4978825;28;20042;-68
2022/12/22 15:30:12;;;;;;;6.78;2.20;;;;;;;;;;4980151;28;20054;-69
2022/12/22 15:32:39;;;;;;;7.82;1.80;;;;;;;;;;4971601;28;20165;-70
2022/12/22 15:35:14;;;;;;;11.48;1.52;;;;;;;;;;4979667;28;20399;-68
2022/12/22 15:37:40;;;;;;;2.65;1.25;;;;;;;;;;4975739;28;20054;-70
2022/12/22 15:40:13;;;;;;;7.97;1.58;;;;;;;;;;4974707;28;20127;-69
2022/12/22 15:42:38;;;;;;;3.83;1.50;;;;;;;;;;4977735;28;20042;-68
2022/12/22 15:45:04;;;;;;;4.50;0.95;;;;;;;;;;4979048;28;20042;-69
2022/12/22 15:47:29;;;;;;;5.50;1.30;;;;;;;;;;4980032;28;20515;-69
2022/12/22 15:49:55;;;;;;;9.68;2.08;;;;;;;;;;4978593;28;21050;-68
2022/12/22 15:52:20;;;;;;;4.75;1.17;;;;;;;;;;4995063;28;20054;-69
2022/12/22 15:54:45;;;;;;;5.28;1.65;;;;;;;;;;4971091;28;20204;-69
2022/12/22 15:57:13;;;;;;;5.82;1.70;;;;;;;;;;4995090;28;20105;-68
2022/12/22 15:59:38;;;;;;;6.47;1.65;;;;;;;;;;4994677;28;20050;-68
2022/12/22 16:02:09;;;;;;;5.00;1.27;;;;;;;;;;4978098;28;20050;-68
2022/12/22 16:04:35;;;;;;;5.05;1.95;;;;;;;;;;4977131;28;20050;-68
2022/12/22 16:07:00;;;;;;;9.43;1.70;;;;;;;;;;4976595;28;20089;-69
2022/12/22 16:09:31;;;;;;;9.98;1.60;;;;;;;;;;4978461;28;20141;-69
2022/12/22 16:11:57;;;;;;;5.20;1.67;;;;;;;;;;4974048;28;20419;-69
2022/12/22 16:14:23;;;;;;;6.05;1.90;;;;;;;;;;4979380;28;20487;-69
2022/12/22 16:16:49;;;;;;;5.10;1.95;;;;;;;;;;4979415;28;20070;-68
2022/12/22 16:19:16;;;;;;;8.40;2.15;;;;;;;;;;4980627;28;20097;-70
2022/12/22 16:21:44;;;;;;;8.75;1.80;;;;;;;;;;4975308;28;20054;-68
2022/12/22 16:24:32;;;;;;;7.13;1.88;;;;;;;;;;4979015;28;20069;-67
2022/12/22 16:26:59;;;;;;;9.30;2.00;;;;;;;;;;4978751;28;20050;-68
2022/12/22 16:29:25;;;;;;;4.55;1.10;;;;;;;;;;4980442;28;20065;-68
2022/12/22 16:31:51;;;;;;;4.55;1.17;;;;;;;;;;4979828;28;20049;-68
2022/12/22 16:34:17;;;;;;;3.55;0.93;;;;;;;;;;4975095;28;20050;-69
2022/12/22 16:36:42;;;;;;;5.35;1.20;;;;;;;;;;4979539;28;20150;-69
2022/12/22 16:39:07;;;;;;;4.53;1.67;;;;;;;;;;4995028;28;20073;-70
2022/12/22 16:41:33;;;;;;;4.57;1.35;;;;;;;;;;4980615;28;20065;-69
2022/12/22 16:44:00;;;;;;;9.30;1.42;;;;;;;;;;4985657;28;20510;-70
2022/12/22 16:46:26;;;;;;;2.88;1.52;;;;;;;;;;4984524;28;20120;-69
2022/12/22 16:48:57;;;;;;;3.28;1.17;;;;;;;;;;4984452;28;20050;-68
2022/12/22 16:51:27;;;;;;;3.88;1.35;;;;;;;;;;4986633;28;20038;-68
2022/12/22 16:53:53;;;;;;;5.03;1.75;;;;;;;;;;4985267;28;20081;-68
2022/12/22 16:56:22;;;;;;;4.15;0.95;;;;;;;;;;4983043;28;20046;-68
2022/12/22 16:58:48;;;;;;;6.00;1.35;;;;;;;;;;4986196;28;20132;-68
2022/12/22 17:01:32;;;;;;;5.03;1.38;;;;;;;;;;5001675;28;20456;-68
2022/12/22 17:04:02;;;;;;;4.97;1.30;;;;;;;;;;4985481;28;20042;-68
2022/12/22 17:06:27;;;;;;;5.18;1.15;;;;;;;;;;4984214;28;20073;-68
2022/12/22 17:08:53;;;;;;;4.55;1.52;;;;;;;;;;5000870;28;20046;-68
2022/12/22 17:11:22;;;;;;;10.25;2.10;;;;;;;;;;4986380;28;20038;-67
2022/12/22 17:13:50;;;;;;;4.95;1.08;;;;;;;;;;4986626;28;20054;-68
2022/12/22 17:16:21;;;;;;;3.45;1.30;;;;;;;;;;4984823;28;20042;-70
2022/12/22 17:18:47;;;;;;;4.97;1.35;;;;;;;;;;4978008;28;20129;-69
2022/12/22 17:21:15;;;;;;;3.00;1.40;;;;;;;;;;4979140;28;20054;-68
2022/12/22 17:23:53;;;;;;;3.28;1.30;;;;;;;;;;4983526;28;20127;-68
2022/12/22 17:26:23;;;;;;;2.05;0.90;;;;;;;;;;4983871;28;20488;-68
2022/12/22 17:28:48;;;;;;;8.00;1.58;;;;;;;;;;4980379;28;20042;-68
2022/12/22 17:31:16;;;;;;;5.47;1.33;;;;;;;;;;4996162;28;20439;-71
2022/12/22 17:33:42;;;;;;;8.38;1.80;;;;;;;;;;5000606;28;20057;-68
2022/12/22 17:36:18;;;;;;;4.63;1.25;;;;;;;;;;4985569;28;20046;-69
2022/12/22 17:38:44;;;;;;;4.68;1.00;;;;;;;;;;4985806;28;20578;-69
2022/12/22 17:41:14;;;;;;;4.57;1.25;;;;;;;;;;4984839;28;20058;-69
2022/12/22 17:43:39;;;;;;;7.75;2.08;;;;;;;;;;4986469;28;20042;-69
2022/12/22 17:46:12;;;;;;;5.75;2.28;;;;;;;;;;4985498;28;20224;-69
2022/12/22 17:48:38;;;;;;;4.47;1.48;;;;;;;;;;4985779;28;20816;-70
2022/12/22 17:51:03;;;;;;;4.25;1.85;;;;;;;;;;4983834;28;20097;-69
2022/12/22 17:53:29;;;;;;;8.68;1.92;;;;;;;;;;4984371;28;20046;-69
2022/12/22 17:55:55;;;;;;;5.28;1.88;;;;;;;;;;4979650;28;20078;-69
2022/12/22 17:58:20;;;;;;;3.10;1.08;;;;;;;;;;4980871;28;20061;-69
2022/12/22 18:00:45;;;;;;;5.03;1.30;;;;;;;;;;4980557;28;20121;-70
2022/12/22 18:03:13;;;;;;;6.68;1.58;;;;;;;;;;4971727;28;20404;-70
2022/12/22 18:05:43;;;;;;;3.92;1.35;;;;;;;;;;4979416;28;20057;-70
2022/12/22 18:08:13;;;;;;;6.32;1.95;;;;;;;;;;4981228;28;20053;-69
2022/12/22 18:10:39;;;;;;;4.85;1.63;;;;;;;;;;4979547;28;20566;-69
2022/12/22 18:13:21;;;;;;;3.67;1.33;;;;;;;;;;4979656;28;20088;-69
2022/12/22 18:15:46;;;;;;;2.30;0.98;;;;;;;;;;4978498;28;20458;-70
2022/12/22 18:18:14;;;;;;;6.32;1.48;;;;;;;;;;4981256;28;20045;-69
2022/12/22 18:20:44;;;;;;;12.07;2.03;;;;;;;;;;4980620;28;20148;-70
2022/12/22 18:23:22;;;;;;;4.28;1.40;;;;;;;;;;4980502;28;20053;-69
2022/12/22 18:25:48;;;;;;;3.75;1.65;;;;;;;;;;4979871;28;20137;-70
2022/12/22 18:28:15;;;;;;;3.47;1.25;;;;;;;;;;4981186;28;20141;-70
2022/12/22 18:30:41;;;;;;;3.80;1.70;;;;;;;;;;4979087;28;20578;-70
2022/12/22 18:33:06;;;;;;;3.67;1.45;;;;;;;;;;4981594;28;20046;-69
2022/12/22 18:35:32;;;;;;;10.40;1.92;;;;;;;;;;4979096;28;20046;-69
2022/12/22 18:37:57;;;;;;;7.93;1.17;;;;;;;;;;4979615;28;20054;-70
2022/12/22 18:40:28;;;;;;;7.47;1.30;;;;;;;;;;4980949;28;20042;-69
2022/12/22 18:42:55;;;;;;;5.10;1.30;;;;;;;;;;4979174;28;20062;-70